sensor_id;sensor_type;location;lat;lon;timestamp;P1;durP1;ratioP1;P2;durP2;ratioP2
5341;SDS011;2693;48.822;9.062;2024-02-26T00:00:29;3.72;;;2.88;;
5341;SDS011;2693;48.822;9.062;2024-02-26T00:02:55;3.55;;;2.90;;
5341;SDS011;2693;48.822;9.062;2024-02-26T00:05:20;4.75;;;2.95;;
5341;SDS011;2693;48.822;9.062;2024-02-26T00:07:46;3.75;;;2.85;;
5341;SDS011;2693;48.822;9.062;2024-02-26T00:10:12;3.95;;;3.00;;
5341;SDS011;2693;48.822;9.062;2024-02-26T00:12:38;5.07;;;3.78;;
5341;SDS011;2693;48.822;9.062;2024-02-26T00:15:05;5.00;;;3.80;;
5341;SDS011;2693;48.822;9.062;2024-02-26T00:17:33;7.75;;;3.55;;
5341;SDS011;2693;48.822;9.062;2024-02-26T00:19:59;3.58;;;3.13;;
5341;SDS011;2693;48.822;9.062;2024-02-26T00:22:25;4.10;;;2.97;;
5341;SDS011;2693;48.822;9.062;2024-02-26T00:24:51;4.43;;;3.35;;
5341;SDS011;2693;48.822;9.062;2024-02-26T00:27:16;7.75;;;3.03;;
5341;SDS011;2693;48.822;9.062;2024-02-26T00:29:41;4.90;;;3.38;;
5341;SDS011;2693;48.822;9.062;2024-02-26T00:32:07;5.85;;;3.38;;
5341;SDS011;2693;48.822;9.062;2024-02-26T00:34:32;4.75;;;3.20;;
5341;SDS011;2693;48.822;9.062;2024-02-26T00:36:58;4.18;;;3.78;;
5341;SDS011;2693;48.822;9.062;2024-02-26T00:39:23;3.70;;;3.17;;
5341;SDS011;2693;48.822;9.062;2024-02-26T00:41:48;5.30;;;3.85;;
5341;SDS011;2693;48.822;9.062;2024-02-26T00:44:14;3.67;;;3.03;;
5341;SDS011;2693;48.822;9.062;2024-02-26T00:46:39;3.45;;;3.13;;
5341;SDS011;2693;48.822;9.062;2024-02-26T00:49:04;4.15;;;2.95;;
5341;SDS011;2693;48.822;9.062;2024-02-26T00:51:30;5.13;;;3.45;;
5341;SDS011;2693;48.822;9.062;2024-02-26T00:53:56;3.67;;;3.08;;
5341;SDS011;2693;48.822;9.062;2024-02-26T00:56:21;2.97;;;2.20;;
5341;SDS011;2693;48.822;9.062;2024-02-26T00:58:46;3.45;;;2.20;;
5341;SDS011;2693;48.822;9.062;2024-02-26T01:01:12;2.90;;;2.20;;
5341;SDS011;2693;48.822;9.062;2024-02-26T01:03:37;3.47;;;2.50;;
5341;SDS011;2693;48.822;9.062;2024-02-26T01:06:03;3.95;;;2.72;;
5341;SDS011;2693;48.822;9.062;2024-02-26T01:08:28;3.47;;;2.38;;
5341;SDS011;2693;48.822;9.062;2024-02-26T01:10:53;2.92;;;2.70;;
5341;SDS011;2693;48.822;9.062;2024-02-26T01:13:19;5.18;;;2.60;;
5341;SDS011;2693;48.822;9.062;2024-02-26T01:15:44;3.80;;;2.97;;
5341;SDS011;2693;48.822;9.062;2024-02-26T01:18:10;4.82;;;3.40;;
5341;SDS011;2693;48.822;9.062;2024-02-26T01:20:35;7.07;;;3.08;;
5341;SDS011;2693;48.822;9.062;2024-02-26T01:23:01;3.97;;;2.97;;
5341;SDS011;2693;48.822;9.062;2024-02-26T01:25:27;3.85;;;3.00;;
5341;SDS011;2693;48.822;9.062;2024-02-26T01:27:52;5.75;;;3.00;;
5341;SDS011;2693;48.822;9.062;2024-02-26T01:30:18;4.57;;;2.90;;
5341;SDS011;2693;48.822;9.062;2024-02-26T01:32:43;4.53;;;3.15;;
5341;SDS011;2693;48.822;9.062;2024-02-26T01:35:08;3.90;;;3.20;;
5341;SDS011;2693;48.822;9.062;2024-02-26T01:37:36;2.90;;;2.70;;
5341;SDS011;2693;48.822;9.062;2024-02-26T01:40:01;4.78;;;3.03;;
5341;SDS011;2693;48.822;9.062;2024-02-26T01:42:29;2.95;;;2.65;;
5341;SDS011;2693;48.822;9.062;2024-02-26T01:44:55;4.32;;;2.88;;
5341;SDS011;2693;48.822;9.062;2024-02-26T01:47:21;3.78;;;2.88;;
5341;SDS011;2693;48.822;9.062;2024-02-26T01:49:46;5.30;;;3.10;;
5341;SDS011;2693;48.822;9.062;2024-02-26T01:52:12;4.40;;;2.83;;
5341;SDS011;2693;48.822;9.062;2024-02-26T01:54:37;3.72;;;3.28;;
5341;SDS011;2693;48.822;9.062;2024-02-26T01:57:03;4.07;;;2.97;;
5341;SDS011;2693;48.822;9.062;2024-02-26T01:59:29;3.00;;;2.70;;
5341;SDS011;2693;48.822;9.062;2024-02-26T02:01:55;4.95;;;3.30;;
5341;SDS011;2693;48.822;9.062;2024-02-26T02:04:23;5.43;;;2.88;;
5341;SDS011;2693;48.822;9.062;2024-02-26T02:06:48;4.90;;;3.58;;
5341;SDS011;2693;48.822;9.062;2024-02-26T02:09:14;3.40;;;2.58;;
5341;SDS011;2693;48.822;9.062;2024-02-26T02:11:40;4.53;;;2.97;;
5341;SDS011;2693;48.822;9.062;2024-02-26T02:14:05;3.25;;;2.95;;
5341;SDS011;2693;48.822;9.062;2024-02-26T02:16:31;4.45;;;3.38;;
5341;SDS011;2693;48.822;9.062;2024-02-26T02:18:57;3.20;;;2.65;;
5341;SDS011;2693;48.822;9.062;2024-02-26T02:21:23;2.80;;;2.55;;
5341;SDS011;2693;48.822;9.062;2024-02-26T02:23:48;4.43;;;2.50;;
5341;SDS011;2693;48.822;9.062;2024-02-26T02:26:14;3.20;;;2.50;;
5341;SDS011;2693;48.822;9.062;2024-02-26T02:28:40;3.47;;;2.53;;
5341;SDS011;2693;48.822;9.062;2024-02-26T02:31:06;2.97;;;2.15;;
5341;SDS011;2693;48.822;9.062;2024-02-26T02:33:31;3.85;;;2.20;;
5341;SDS011;2693;48.822;9.062;2024-02-26T02:35:57;2.20;;;2.00;;
5341;SDS011;2693;48.822;9.062;2024-02-26T02:38:23;2.92;;;2.50;;
5341;SDS011;2693;48.822;9.062;2024-02-26T02:40:49;4.50;;;2.80;;
5341;SDS011;2693;48.822;9.062;2024-02-26T02:43:14;3.25;;;2.28;;
5341;SDS011;2693;48.822;9.062;2024-02-26T02:45:39;3.75;;;2.33;;
5341;SDS011;2693;48.822;9.062;2024-02-26T02:48:05;3.08;;;2.10;;
5341;SDS011;2693;48.822;9.062;2024-02-26T02:50:30;3.97;;;2.42;;
5341;SDS011;2693;48.822;9.062;2024-02-26T02:52:55;3.67;;;2.50;;
5341;SDS011;2693;48.822;9.062;2024-02-26T02:55:21;3.17;;;2.40;;
5341;SDS011;2693;48.822;9.062;2024-02-26T02:57:46;4.70;;;2.58;;
5341;SDS011;2693;48.822;9.062;2024-02-26T03:00:12;3.30;;;2.15;;
5341;SDS011;2693;48.822;9.062;2024-02-26T03:02:37;2.92;;;1.90;;
5341;SDS011;2693;48.822;9.062;2024-02-26T03:05:03;2.55;;;1.67;;
5341;SDS011;2693;48.822;9.062;2024-02-26T03:07:29;2.30;;;1.83;;
5341;SDS011;2693;48.822;9.062;2024-02-26T03:09:54;2.67;;;2.47;;
5341;SDS011;2693;48.822;9.062;2024-02-26T03:12:20;2.83;;;2.30;;
5341;SDS011;2693;48.822;9.062;2024-02-26T03:14:45;1.98;;;1.80;;
5341;SDS011;2693;48.822;9.062;2024-02-26T03:17:11;2.15;;;1.92;;
5341;SDS011;2693;48.822;9.062;2024-02-26T03:19:36;2.25;;;1.63;;
5341;SDS011;2693;48.822;9.062;2024-02-26T03:22:02;2.97;;;2.38;;
5341;SDS011;2693;48.822;9.062;2024-02-26T03:24:27;3.42;;;2.20;;
5341;SDS011;2693;48.822;9.062;2024-02-26T03:26:53;2.05;;;1.60;;
5341;SDS011;2693;48.822;9.062;2024-02-26T03:29:18;2.60;;;1.63;;
5341;SDS011;2693;48.822;9.062;2024-02-26T03:31:44;1.38;;;1.20;;
5341;SDS011;2693;48.822;9.062;2024-02-26T03:34:09;1.40;;;1.30;;
5341;SDS011;2693;48.822;9.062;2024-02-26T03:36:34;2.05;;;1.73;;
5341;SDS011;2693;48.822;9.062;2024-02-26T03:39:00;3.28;;;2.20;;
5341;SDS011;2693;48.822;9.062;2024-02-26T03:41:26;1.50;;;1.40;;
5341;SDS011;2693;48.822;9.062;2024-02-26T03:43:51;3.38;;;1.40;;
5341;SDS011;2693;48.822;9.062;2024-02-26T03:46:17;1.73;;;1.45;;
5341;SDS011;2693;48.822;9.062;2024-02-26T03:48:42;2.28;;;1.67;;
5341;SDS011;2693;48.822;9.062;2024-02-26T03:51:11;2.53;;;1.45;;
5341;SDS011;2693;48.822;9.062;2024-02-26T03:53:36;3.08;;;1.80;;
5341;SDS011;2693;48.822;9.062;2024-02-26T03:56:05;2.65;;;1.73;;
5341;SDS011;2693;48.822;9.062;2024-02-26T03:58:31;2.17;;;1.80;;
5341;SDS011;2693;48.822;9.062;2024-02-26T04:00:56;2.25;;;1.73;;
5341;SDS011;2693;48.822;9.062;2024-02-26T04:03:22;2.15;;;1.92;;
5341;SDS011;2693;48.822;9.062;2024-02-26T04:05:47;2.38;;;1.85;;
5341;SDS011;2693;48.822;9.062;2024-02-26T04:08:13;2.28;;;1.83;;
5341;SDS011;2693;48.822;9.062;2024-02-26T04:10:38;2.33;;;2.00;;
5341;SDS011;2693;48.822;9.062;2024-02-26T04:13:04;2.35;;;1.77;;
5341;SDS011;2693;48.822;9.062;2024-02-26T04:15:30;3.88;;;1.75;;
5341;SDS011;2693;48.822;9.062;2024-02-26T04:17:56;2.28;;;1.65;;
5341;SDS011;2693;48.822;9.062;2024-02-26T04:20:21;3.13;;;1.88;;
5341;SDS011;2693;48.822;9.062;2024-02-26T04:22:47;2.38;;;1.90;;
5341;SDS011;2693;48.822;9.062;2024-02-26T04:25:12;2.38;;;1.85;;
5341;SDS011;2693;48.822;9.062;2024-02-26T04:27:38;2.22;;;1.80;;
5341;SDS011;2693;48.822;9.062;2024-02-26T04:30:04;3.78;;;2.13;;
5341;SDS011;2693;48.822;9.062;2024-02-26T04:32:30;2.10;;;1.80;;
5341;SDS011;2693;48.822;9.062;2024-02-26T04:34:56;1.95;;;1.73;;
5341;SDS011;2693;48.822;9.062;2024-02-26T04:37:22;2.97;;;1.67;;
5341;SDS011;2693;48.822;9.062;2024-02-26T04:39:47;2.38;;;1.50;;
5341;SDS011;2693;48.822;9.062;2024-02-26T04:42:12;3.08;;;1.75;;
5341;SDS011;2693;48.822;9.062;2024-02-26T04:44:39;2.28;;;1.77;;
5341;SDS011;2693;48.822;9.062;2024-02-26T04:47:04;2.50;;;1.83;;
5341;SDS011;2693;48.822;9.062;2024-02-26T04:49:29;1.90;;;1.55;;
5341;SDS011;2693;48.822;9.062;2024-02-26T04:51:55;2.35;;;1.63;;
5341;SDS011;2693;48.822;9.062;2024-02-26T04:54:20;2.58;;;1.60;;
5341;SDS011;2693;48.822;9.062;2024-02-26T04:56:46;1.75;;;1.60;;
5341;SDS011;2693;48.822;9.062;2024-02-26T04:59:11;1.95;;;1.60;;
5341;SDS011;2693;48.822;9.062;2024-02-26T05:01:36;2.88;;;1.58;;
5341;SDS011;2693;48.822;9.062;2024-02-26T05:04:02;2.45;;;1.77;;
5341;SDS011;2693;48.822;9.062;2024-02-26T05:06:28;3.22;;;1.80;;
5341;SDS011;2693;48.822;9.062;2024-02-26T05:08:54;2.45;;;1.80;;
5341;SDS011;2693;48.822;9.062;2024-02-26T05:11:19;2.53;;;1.90;;
5341;SDS011;2693;48.822;9.062;2024-02-26T05:13:44;5.15;;;1.77;;
5341;SDS011;2693;48.822;9.062;2024-02-26T05:16:10;2.85;;;1.98;;
5341;SDS011;2693;48.822;9.062;2024-02-26T05:18:35;2.50;;;1.80;;
5341;SDS011;2693;48.822;9.062;2024-02-26T05:21:01;2.63;;;1.70;;
5341;SDS011;2693;48.822;9.062;2024-02-26T05:23:28;2.58;;;1.73;;
5341;SDS011;2693;48.822;9.062;2024-02-26T05:25:53;1.65;;;1.45;;
5341;SDS011;2693;48.822;9.062;2024-02-26T05:28:19;2.25;;;1.90;;
5341;SDS011;2693;48.822;9.062;2024-02-26T05:30:45;2.22;;;1.80;;
5341;SDS011;2693;48.822;9.062;2024-02-26T05:33:10;2.53;;;1.83;;
5341;SDS011;2693;48.822;9.062;2024-02-26T05:35:36;2.15;;;1.52;;
5341;SDS011;2693;48.822;9.062;2024-02-26T05:38:02;2.45;;;1.75;;
5341;SDS011;2693;48.822;9.062;2024-02-26T05:40:27;1.90;;;1.52;;
5341;SDS011;2693;48.822;9.062;2024-02-26T05:42:53;2.10;;;1.52;;
5341;SDS011;2693;48.822;9.062;2024-02-26T05:45:18;1.40;;;1.30;;
5341;SDS011;2693;48.822;9.062;2024-02-26T05:47:43;2.13;;;1.58;;
5341;SDS011;2693;48.822;9.062;2024-02-26T05:50:09;1.30;;;1.20;;
5341;SDS011;2693;48.822;9.062;2024-02-26T05:52:36;1.38;;;1.27;;
5341;SDS011;2693;48.822;9.062;2024-02-26T05:55:02;2.03;;;1.70;;
5341;SDS011;2693;48.822;9.062;2024-02-26T05:57:28;1.73;;;1.50;;
5341;SDS011;2693;48.822;9.062;2024-02-26T05:59:53;1.70;;;1.50;;
5341;SDS011;2693;48.822;9.062;2024-02-26T06:02:18;3.20;;;1.70;;
5341;SDS011;2693;48.822;9.062;2024-02-26T06:04:44;2.25;;;1.70;;
5341;SDS011;2693;48.822;9.062;2024-02-26T06:07:09;2.60;;;1.90;;
5341;SDS011;2693;48.822;9.062;2024-02-26T06:09:34;1.88;;;1.70;;
5341;SDS011;2693;48.822;9.062;2024-02-26T06:12:00;2.22;;;2.00;;
5341;SDS011;2693;48.822;9.062;2024-02-26T06:14:25;2.08;;;1.58;;
5341;SDS011;2693;48.822;9.062;2024-02-26T06:16:50;2.28;;;1.83;;
5341;SDS011;2693;48.822;9.062;2024-02-26T06:19:16;3.25;;;2.00;;
5341;SDS011;2693;48.822;9.062;2024-02-26T06:21:41;2.60;;;1.98;;
5341;SDS011;2693;48.822;9.062;2024-02-26T06:24:06;2.33;;;2.13;;
5341;SDS011;2693;48.822;9.062;2024-02-26T06:26:32;2.38;;;2.17;;
5341;SDS011;2693;48.822;9.062;2024-02-26T06:28:58;3.05;;;2.33;;
5341;SDS011;2693;48.822;9.062;2024-02-26T06:31:24;3.75;;;2.50;;
5341;SDS011;2693;48.822;9.062;2024-02-26T06:33:49;3.05;;;2.72;;
5341;SDS011;2693;48.822;9.062;2024-02-26T06:36:17;2.92;;;2.25;;
5341;SDS011;2693;48.822;9.062;2024-02-26T06:38:43;2.75;;;2.33;;
5341;SDS011;2693;48.822;9.062;2024-02-26T06:41:08;3.58;;;2.90;;
5341;SDS011;2693;48.822;9.062;2024-02-26T06:43:34;2.05;;;1.85;;
5341;SDS011;2693;48.822;9.062;2024-02-26T06:45:59;3.05;;;2.03;;
5341;SDS011;2693;48.822;9.062;2024-02-26T06:48:25;3.55;;;2.03;;
5341;SDS011;2693;48.822;9.062;2024-02-26T06:50:50;2.83;;;2.28;;
5341;SDS011;2693;48.822;9.062;2024-02-26T06:53:16;2.58;;;2.15;;
5341;SDS011;2693;48.822;9.062;2024-02-26T06:55:41;2.50;;;2.15;;
5341;SDS011;2693;48.822;9.062;2024-02-26T06:58:07;3.08;;;2.20;;
5341;SDS011;2693;48.822;9.062;2024-02-26T07:00:33;2.42;;;1.90;;
5341;SDS011;2693;48.822;9.062;2024-02-26T07:02:59;1.73;;;1.60;;
5341;SDS011;2693;48.822;9.062;2024-02-26T07:05:24;2.03;;;1.85;;
5341;SDS011;2693;48.822;9.062;2024-02-26T07:07:49;2.53;;;1.65;;
5341;SDS011;2693;48.822;9.062;2024-02-26T07:10:15;2.20;;;1.70;;
5341;SDS011;2693;48.822;9.062;2024-02-26T07:12:40;1.67;;;1.58;;
5341;SDS011;2693;48.822;9.062;2024-02-26T07:15:06;1.63;;;1.52;;
5341;SDS011;2693;48.822;9.062;2024-02-26T07:17:33;1.75;;;1.65;;
5341;SDS011;2693;48.822;9.062;2024-02-26T07:19:59;2.72;;;1.80;;
5341;SDS011;2693;48.822;9.062;2024-02-26T07:22:24;4.13;;;1.70;;
5341;SDS011;2693;48.822;9.062;2024-02-26T07:24:50;2.28;;;1.63;;
5341;SDS011;2693;48.822;9.062;2024-02-26T07:27:16;3.67;;;1.63;;
5341;SDS011;2693;48.822;9.062;2024-02-26T07:29:42;1.95;;;1.40;;
5341;SDS011;2693;48.822;9.062;2024-02-26T07:32:08;1.80;;;1.48;;
5341;SDS011;2693;48.822;9.062;2024-02-26T07:34:33;2.28;;;1.80;;
5341;SDS011;2693;48.822;9.062;2024-02-26T07:36:59;2.20;;;1.75;;
5341;SDS011;2693;48.822;9.062;2024-02-26T07:39:24;2.10;;;1.58;;
5341;SDS011;2693;48.822;9.062;2024-02-26T07:41:49;2.88;;;1.88;;
5341;SDS011;2693;48.822;9.062;2024-02-26T07:44:17;2.97;;;2.35;;
5341;SDS011;2693;48.822;9.062;2024-02-26T07:46:43;2.90;;;1.88;;
5341;SDS011;2693;48.822;9.062;2024-02-26T07:49:08;2.85;;;2.00;;
5341;SDS011;2693;48.822;9.062;2024-02-26T07:51:33;2.83;;;1.75;;
5341;SDS011;2693;48.822;9.062;2024-02-26T07:54:00;3.92;;;2.10;;
5341;SDS011;2693;48.822;9.062;2024-02-26T07:56:25;4.50;;;2.20;;
5341;SDS011;2693;48.822;9.062;2024-02-26T07:58:51;2.70;;;2.17;;
5341;SDS011;2693;48.822;9.062;2024-02-26T08:01:16;2.97;;;2.47;;
5341;SDS011;2693;48.822;9.062;2024-02-26T08:03:42;3.95;;;2.30;;
5341;SDS011;2693;48.822;9.062;2024-02-26T08:06:08;2.55;;;2.13;;
5341;SDS011;2693;48.822;9.062;2024-02-26T08:08:33;3.80;;;1.95;;
5341;SDS011;2693;48.822;9.062;2024-02-26T08:10:59;2.28;;;1.83;;
5341;SDS011;2693;48.822;9.062;2024-02-26T08:13:24;3.35;;;2.30;;
5341;SDS011;2693;48.822;9.062;2024-02-26T08:15:51;3.28;;;2.25;;
5341;SDS011;2693;48.822;9.062;2024-02-26T08:18:16;3.78;;;2.67;;
5341;SDS011;2693;48.822;9.062;2024-02-26T08:20:42;3.22;;;2.20;;
5341;SDS011;2693;48.822;9.062;2024-02-26T08:23:07;2.72;;;1.90;;
5341;SDS011;2693;48.822;9.062;2024-02-26T08:25:32;3.20;;;2.35;;
5341;SDS011;2693;48.822;9.062;2024-02-26T08:27:58;2.10;;;1.80;;
5341;SDS011;2693;48.822;9.062;2024-02-26T08:30:23;3.88;;;2.00;;
5341;SDS011;2693;48.822;9.062;2024-02-26T08:32:49;2.33;;;2.13;;
5341;SDS011;2693;48.822;9.062;2024-02-26T08:35:14;4.20;;;2.60;;
5341;SDS011;2693;48.822;9.062;2024-02-26T08:37:40;3.63;;;2.60;;
5341;SDS011;2693;48.822;9.062;2024-02-26T08:40:06;4.65;;;2.67;;
5341;SDS011;2693;48.822;9.062;2024-02-26T08:42:32;4.85;;;2.80;;
5341;SDS011;2693;48.822;9.062;2024-02-26T08:44:57;5.32;;;2.97;;
5341;SDS011;2693;48.822;9.062;2024-02-26T08:47:25;3.08;;;2.83;;
5341;SDS011;2693;48.822;9.062;2024-02-26T08:49:50;3.55;;;2.90;;
5341;SDS011;2693;48.822;9.062;2024-02-26T08:52:16;4.95;;;3.08;;
5341;SDS011;2693;48.822;9.062;2024-02-26T08:54:41;5.63;;;3.20;;
5341;SDS011;2693;48.822;9.062;2024-02-26T08:57:07;6.20;;;3.45;;
5341;SDS011;2693;48.822;9.062;2024-02-26T08:59:32;5.10;;;2.90;;
5341;SDS011;2693;48.822;9.062;2024-02-26T09:01:57;4.82;;;3.15;;
5341;SDS011;2693;48.822;9.062;2024-02-26T09:04:23;5.00;;;3.22;;
5341;SDS011;2693;48.822;9.062;2024-02-26T09:06:48;4.80;;;2.95;;
5341;SDS011;2693;48.822;9.062;2024-02-26T09:09:14;4.60;;;2.67;;
5341;SDS011;2693;48.822;9.062;2024-02-26T09:11:39;5.97;;;3.50;;
5341;SDS011;2693;48.822;9.062;2024-02-26T09:14:05;5.93;;;3.38;;
5341;SDS011;2693;48.822;9.062;2024-02-26T09:16:30;5.93;;;3.45;;
5341;SDS011;2693;48.822;9.062;2024-02-26T09:18:56;3.97;;;2.90;;
5341;SDS011;2693;48.822;9.062;2024-02-26T09:21:21;6.72;;;3.70;;
5341;SDS011;2693;48.822;9.062;2024-02-26T09:23:50;6.32;;;3.13;;
5341;SDS011;2693;48.822;9.062;2024-02-26T09:26:16;4.38;;;3.03;;
5341;SDS011;2693;48.822;9.062;2024-02-26T09:28:41;6.55;;;3.63;;
5341;SDS011;2693;48.822;9.062;2024-02-26T09:31:06;6.43;;;2.70;;
5341;SDS011;2693;48.822;9.062;2024-02-26T09:33:32;4.82;;;3.25;;
5341;SDS011;2693;48.822;9.062;2024-02-26T09:35:58;4.28;;;2.70;;
5341;SDS011;2693;48.822;9.062;2024-02-26T09:38:24;5.05;;;3.30;;
5341;SDS011;2693;48.822;9.062;2024-02-26T09:40:49;3.92;;;3.22;;
5341;SDS011;2693;48.822;9.062;2024-02-26T09:43:15;5.70;;;2.80;;
5341;SDS011;2693;48.822;9.062;2024-02-26T09:45:42;5.93;;;3.25;;
5341;SDS011;2693;48.822;9.062;2024-02-26T09:48:08;5.22;;;3.47;;
5341;SDS011;2693;48.822;9.062;2024-02-26T09:50:35;5.20;;;3.03;;
5341;SDS011;2693;48.822;9.062;2024-02-26T09:53:02;5.75;;;3.00;;
5341;SDS011;2693;48.822;9.062;2024-02-26T09:55:28;6.30;;;3.17;;
5341;SDS011;2693;48.822;9.062;2024-02-26T09:57:54;3.30;;;2.42;;
5341;SDS011;2693;48.822;9.062;2024-02-26T10:00:21;4.55;;;2.80;;
5341;SDS011;2693;48.822;9.062;2024-02-26T10:02:47;4.68;;;3.08;;
5341;SDS011;2693;48.822;9.062;2024-02-26T10:05:14;4.80;;;2.90;;
5341;SDS011;2693;48.822;9.062;2024-02-26T10:07:45;3.83;;;2.70;;
5341;SDS011;2693;48.822;9.062;2024-02-26T10:10:11;7.75;;;2.58;;
5341;SDS011;2693;48.822;9.062;2024-02-26T10:12:36;4.05;;;2.08;;
5341;SDS011;2693;48.822;9.062;2024-02-26T10:15:02;6.82;;;2.58;;
5341;SDS011;2693;48.822;9.062;2024-02-26T10:17:27;5.60;;;3.00;;
5341;SDS011;2693;48.822;9.062;2024-02-26T10:19:53;6.47;;;2.88;;
5341;SDS011;2693;48.822;9.062;2024-02-26T10:22:21;4.25;;;2.63;;
5341;SDS011;2693;48.822;9.062;2024-02-26T10:24:47;4.07;;;2.45;;
5341;SDS011;2693;48.822;9.062;2024-02-26T10:27:12;4.18;;;2.40;;
5341;SDS011;2693;48.822;9.062;2024-02-26T10:29:38;4.78;;;2.58;;
5341;SDS011;2693;48.822;9.062;2024-02-26T10:32:03;3.65;;;2.60;;
5341;SDS011;2693;48.822;9.062;2024-02-26T10:34:29;3.75;;;2.42;;
5341;SDS011;2693;48.822;9.062;2024-02-26T10:36:54;3.83;;;2.38;;
5341;SDS011;2693;48.822;9.062;2024-02-26T10:39:20;3.55;;;2.70;;
5341;SDS011;2693;48.822;9.062;2024-02-26T10:41:45;3.95;;;2.28;;
5341;SDS011;2693;48.822;9.062;2024-02-26T10:44:11;5.88;;;2.70;;
5341;SDS011;2693;48.822;9.062;2024-02-26T10:46:38;6.68;;;3.45;;
5341;SDS011;2693;48.822;9.062;2024-02-26T10:49:03;4.97;;;2.88;;
5341;SDS011;2693;48.822;9.062;2024-02-26T10:51:29;3.67;;;2.50;;
5341;SDS011;2693;48.822;9.062;2024-02-26T10:53:58;2.95;;;2.38;;
5341;SDS011;2693;48.822;9.062;2024-02-26T10:56:27;4.55;;;2.92;;
5341;SDS011;2693;48.822;9.062;2024-02-26T10:58:54;5.78;;;2.47;;
5341;SDS011;2693;48.822;9.062;2024-02-26T11:01:20;4.13;;;2.20;;
5341;SDS011;2693;48.822;9.062;2024-02-26T11:03:48;2.95;;;2.03;;
5341;SDS011;2693;48.822;9.062;2024-02-26T11:06:15;4.47;;;2.13;;
5341;SDS011;2693;48.822;9.062;2024-02-26T11:08:40;3.55;;;1.90;;
5341;SDS011;2693;48.822;9.062;2024-02-26T11:11:06;2.03;;;1.80;;
5341;SDS011;2693;48.822;9.062;2024-02-26T11:13:32;2.58;;;1.80;;
5341;SDS011;2693;48.822;9.062;2024-02-26T11:15:59;3.20;;;1.60;;
5341;SDS011;2693;48.822;9.062;2024-02-26T11:18:26;2.75;;;1.60;;
5341;SDS011;2693;48.822;9.062;2024-02-26T11:20:52;2.55;;;1.55;;
5341;SDS011;2693;48.822;9.062;2024-02-26T11:23:21;3.90;;;1.55;;
5341;SDS011;2693;48.822;9.062;2024-02-26T11:25:47;2.65;;;1.70;;
5341;SDS011;2693;48.822;9.062;2024-02-26T11:28:15;2.53;;;1.63;;
5341;SDS011;2693;48.822;9.062;2024-02-26T11:30:44;2.58;;;1.48;;
5341;SDS011;2693;48.822;9.062;2024-02-26T11:33:11;2.95;;;1.70;;
5341;SDS011;2693;48.822;9.062;2024-02-26T11:35:38;3.88;;;1.90;;
5341;SDS011;2693;48.822;9.062;2024-02-26T11:38:04;2.28;;;1.40;;
5341;SDS011;2693;48.822;9.062;2024-02-26T11:40:31;2.30;;;1.67;;
5341;SDS011;2693;48.822;9.062;2024-02-26T11:42:57;1.27;;;1.13;;
5341;SDS011;2693;48.822;9.062;2024-02-26T11:48:12;5.10;;;2.88;;
5341;SDS011;2693;48.822;9.062;2024-02-26T11:50:41;2.25;;;1.23;;
5341;SDS011;2693;48.822;9.062;2024-02-26T11:53:20;2.20;;;1.50;;
5341;SDS011;2693;48.822;9.062;2024-02-26T11:59:03;2.20;;;1.58;;
5341;SDS011;2693;48.822;9.062;2024-02-26T12:01:47;2.53;;;1.55;;
5341;SDS011;2693;48.822;9.062;2024-02-26T12:06:44;2.22;;;1.33;;
5341;SDS011;2693;48.822;9.062;2024-02-26T12:09:13;1.92;;;1.20;;
5341;SDS011;2693;48.822;9.062;2024-02-26T12:11:39;3.08;;;1.60;;
5341;SDS011;2693;48.822;9.062;2024-02-26T12:14:05;2.33;;;1.15;;
5341;SDS011;2693;48.822;9.062;2024-02-26T12:16:36;3.50;;;1.20;;
5341;SDS011;2693;48.822;9.062;2024-02-26T12:19:06;1.88;;;1.30;;
5341;SDS011;2693;48.822;9.062;2024-02-26T12:21:35;2.85;;;1.30;;
5341;SDS011;2693;48.822;9.062;2024-02-26T12:24:11;2.80;;;1.27;;
5341;SDS011;2693;48.822;9.062;2024-02-26T12:26:41;4.28;;;2.05;;
5341;SDS011;2693;48.822;9.062;2024-02-26T12:29:07;3.63;;;1.55;;
5341;SDS011;2693;48.822;9.062;2024-02-26T12:31:33;2.78;;;1.35;;
5341;SDS011;2693;48.822;9.062;2024-02-26T12:34:01;2.67;;;1.27;;
5341;SDS011;2693;48.822;9.062;2024-02-26T12:36:27;3.42;;;1.55;;
5341;SDS011;2693;48.822;9.062;2024-02-26T12:38:53;1.75;;;1.25;;
5341;SDS011;2693;48.822;9.062;2024-02-26T12:41:18;1.42;;;0.93;;
5341;SDS011;2693;48.822;9.062;2024-02-26T12:43:43;1.55;;;0.90;;
5341;SDS011;2693;48.822;9.062;2024-02-26T12:46:09;1.83;;;1.23;;
5341;SDS011;2693;48.822;9.062;2024-02-26T12:48:36;1.50;;;1.10;;
5341;SDS011;2693;48.822;9.062;2024-02-26T12:51:01;1.70;;;1.10;;
5341;SDS011;2693;48.822;9.062;2024-02-26T12:53:26;1.70;;;1.35;;
5341;SDS011;2693;48.822;9.062;2024-02-26T12:55:53;5.00;;;2.03;;
5341;SDS011;2693;48.822;9.062;2024-02-26T12:58:19;2.90;;;1.45;;
5341;SDS011;2693;48.822;9.062;2024-02-26T13:00:45;1.60;;;1.30;;
5341;SDS011;2693;48.822;9.062;2024-02-26T13:03:11;1.88;;;1.67;;
5341;SDS011;2693;48.822;9.062;2024-02-26T13:05:37;2.20;;;1.40;;
5341;SDS011;2693;48.822;9.062;2024-02-26T13:08:03;1.67;;;1.02;;
5341;SDS011;2693;48.822;9.062;2024-02-26T13:10:28;1.40;;;1.00;;
5341;SDS011;2693;48.822;9.062;2024-02-26T13:12:54;2.00;;;1.42;;
5341;SDS011;2693;48.822;9.062;2024-02-26T13:15:19;1.90;;;1.30;;
5341;SDS011;2693;48.822;9.062;2024-02-26T13:17:46;1.85;;;0.95;;
5341;SDS011;2693;48.822;9.062;2024-02-26T13:20:12;1.85;;;1.27;;
5341;SDS011;2693;48.822;9.062;2024-02-26T13:22:38;1.67;;;1.10;;
5341;SDS011;2693;48.822;9.062;2024-02-26T13:25:04;1.48;;;1.20;;
5341;SDS011;2693;48.822;9.062;2024-02-26T13:27:32;1.73;;;1.13;;
5341;SDS011;2693;48.822;9.062;2024-02-26T13:30:03;1.73;;;1.02;;
5341;SDS011;2693;48.822;9.062;2024-02-26T13:32:34;1.92;;;1.10;;
5341;SDS011;2693;48.822;9.062;2024-02-26T13:37:35;1.20;;;1.02;;
5341;SDS011;2693;48.822;9.062;2024-02-26T13:40:00;1.10;;;0.73;;
5341;SDS011;2693;48.822;9.062;2024-02-26T13:42:35;1.75;;;0.95;;
5341;SDS011;2693;48.822;9.062;2024-02-26T13:45:02;0.82;;;0.70;;
5341;SDS011;2693;48.822;9.062;2024-02-26T13:47:27;1.27;;;0.93;;
5341;SDS011;2693;48.822;9.062;2024-02-26T13:49:53;0.60;;;0.60;;
5341;SDS011;2693;48.822;9.062;2024-02-26T13:52:18;1.05;;;0.88;;
5341;SDS011;2693;48.822;9.062;2024-02-26T13:54:45;1.33;;;0.68;;
5341;SDS011;2693;48.822;9.062;2024-02-26T13:57:11;1.15;;;0.55;;
5341;SDS011;2693;48.822;9.062;2024-02-26T13:59:36;0.60;;;0.60;;
5341;SDS011;2693;48.822;9.062;2024-02-26T14:02:02;0.60;;;0.57;;
5341;SDS011;2693;48.822;9.062;2024-02-26T14:04:27;1.65;;;0.50;;
5341;SDS011;2693;48.822;9.062;2024-02-26T14:06:52;0.50;;;0.40;;
5341;SDS011;2693;48.822;9.062;2024-02-26T14:09:18;1.05;;;0.60;;
5341;SDS011;2693;48.822;9.062;2024-02-26T14:11:45;0.50;;;0.50;;
5341;SDS011;2693;48.822;9.062;2024-02-26T14:14:10;0.73;;;0.60;;
5341;SDS011;2693;48.822;9.062;2024-02-26T14:16:35;2.85;;;0.85;;
5341;SDS011;2693;48.822;9.062;2024-02-26T14:19:01;1.27;;;0.90;;
5341;SDS011;2693;48.822;9.062;2024-02-26T14:21:27;1.25;;;0.80;;
5341;SDS011;2693;48.822;9.062;2024-02-26T14:23:54;3.42;;;2.25;;
5341;SDS011;2693;48.822;9.062;2024-02-26T14:26:20;0.77;;;0.65;;
5341;SDS011;2693;48.822;9.062;2024-02-26T14:28:46;0.68;;;0.68;;
5341;SDS011;2693;48.822;9.062;2024-02-26T14:31:11;0.82;;;0.70;;
5341;SDS011;2693;48.822;9.062;2024-02-26T14:33:40;0.60;;;0.60;;
5341;SDS011;2693;48.822;9.062;2024-02-26T14:36:06;0.82;;;0.60;;
5341;SDS011;2693;48.822;9.062;2024-02-26T14:38:32;0.73;;;0.70;;
5341;SDS011;2693;48.822;9.062;2024-02-26T14:40:57;0.98;;;0.80;;
5341;SDS011;2693;48.822;9.062;2024-02-26T14:43:22;0.80;;;0.50;;
5341;SDS011;2693;48.822;9.062;2024-02-26T14:45:48;0.65;;;0.50;;
5341;SDS011;2693;48.822;9.062;2024-02-26T14:48:13;0.77;;;0.52;;
5341;SDS011;2693;48.822;9.062;2024-02-26T14:50:38;0.90;;;0.60;;
5341;SDS011;2693;48.822;9.062;2024-02-26T14:53:04;0.77;;;0.50;;
5341;SDS011;2693;48.822;9.062;2024-02-26T14:55:29;1.85;;;0.50;;
5341;SDS011;2693;48.822;9.062;2024-02-26T14:57:54;0.95;;;0.50;;
5341;SDS011;2693;48.822;9.062;2024-02-26T15:00:20;0.47;;;0.47;;
5341;SDS011;2693;48.822;9.062;2024-02-26T15:02:45;1.33;;;0.60;;
5341;SDS011;2693;48.822;9.062;2024-02-26T15:05:11;0.60;;;0.60;;
5341;SDS011;2693;48.822;9.062;2024-02-26T15:07:37;0.70;;;0.70;;
5341;SDS011;2693;48.822;9.062;2024-02-26T15:10:05;0.40;;;0.40;;
5341;SDS011;2693;48.822;9.062;2024-02-26T15:12:31;0.40;;;0.40;;
5341;SDS011;2693;48.822;9.062;2024-02-26T15:14:57;0.80;;;0.60;;
5341;SDS011;2693;48.822;9.062;2024-02-26T15:17:22;0.50;;;0.50;;